sensor_id;sensor_type;location;lat;lon;timestamp;temperature;humidity
20744;DHT22;56303;52.160;-0.428;2023-09-12T00:00:45;22.70;99.90
20744;DHT22;56303;52.160;-0.428;2023-09-12T00:03:12;22.50;99.90
20744;DHT22;56303;52.160;-0.428;2023-09-12T00:05:39;22.40;99.90
20744;DHT22;56303;52.160;-0.428;2023-09-12T00:08:06;22.50;99.90
20744;DHT22;56303;52.160;-0.428;2023-09-12T00:10:33;22.50;99.90
20744;DHT22;56303;52.160;-0.428;2023-09-12T00:13:00;22.50;99.90
20744;DHT22;56303;52.160;-0.428;2023-09-12T00:15:29;22.40;99.90
20744;DHT22;56303;52.160;-0.428;2023-09-12T00:17:56;22.40;99.90
20744;DHT22;56303;52.160;-0.428;2023-09-12T00:20:23;22.60;99.90
20744;DHT22;56303;52.160;-0.428;2023-09-12T00:22:50;22.70;99.90
20744;DHT22;56303;52.160;-0.428;2023-09-12T00:25:17;22.80;99.90
20744;DHT22;56303;52.160;-0.428;2023-09-12T00:27:44;22.80;99.90
20744;DHT22;56303;52.160;-0.428;2023-09-12T00:30:11;22.90;99.90
20744;DHT22;56303;52.160;-0.428;2023-09-12T00:32:38;22.80;99.90
20744;DHT22;56303;52.160;-0.428;2023-09-12T00:35:05;22.70;99.90
20744;DHT22;56303;52.160;-0.428;2023-09-12T00:37:32;22.60;99.90
20744;DHT22;56303;52.160;-0.428;2023-09-12T00:39:59;22.50;99.90
20744;DHT22;56303;52.160;-0.428;2023-09-12T00:42:26;22.50;99.90
20744;DHT22;56303;52.160;-0.428;2023-09-12T00:44:53;22.30;99.90
20744;DHT22;56303;52.160;-0.428;2023-09-12T00:47:20;22.10;99.90
20744;DHT22;56303;52.160;-0.428;2023-09-12T00:49:49;22.10;99.90
20744;DHT22;56303;52.160;-0.428;2023-09-12T00:52:24;22.00;99.90
20744;DHT22;56303;52.160;-0.428;2023-09-12T00:54:52;22.10;99.90
20744;DHT22;56303;52.160;-0.428;2023-09-12T00:57:20;22.10;99.90
20744;DHT22;56303;52.160;-0.428;2023-09-12T00:59:48;22.00;99.90
20744;DHT22;56303;52.160;-0.428;2023-09-12T01:02:15;22.00;99.90
20744;DHT22;56303;52.160;-0.428;2023-09-12T01:04:43;22.10;99.90
20744;DHT22;56303;52.160;-0.428;2023-09-12T01:07:10;22.10;99.90
20744;DHT22;56303;52.160;-0.428;2023-09-12T01:09:36;22.30;99.90
20744;DHT22;56303;52.160;-0.428;2023-09-12T01:12:04;22.50;99.90
20744;DHT22;56303;52.160;-0.428;2023-09-12T01:14:31;22.40;99.90
20744;DHT22;56303;52.160;-0.428;2023-09-12T01:16:58;22.50;99.90
20744;DHT22;56303;52.160;-0.428;2023-09-12T01:19:26;22.70;99.90
20744;DHT22;56303;52.160;-0.428;2023-09-12T01:27:28;22.50;99.90
20744;DHT22;56303;52.160;-0.428;2023-09-12T01:29:57;22.40;99.90
20744;DHT22;56303;52.160;-0.428;2023-09-12T01:32:27;22.40;99.90
20744;DHT22;56303;52.160;-0.428;2023-09-12T01:34:55;22.70;99.90
20744;DHT22;56303;52.160;-0.428;2023-09-12T01:37:22;22.90;99.90
20744;DHT22;56303;52.160;-0.428;2023-09-12T01:39:49;22.70;99.90
20744;DHT22;56303;52.160;-0.428;2023-09-12T01:42:18;22.20;99.90
20744;DHT22;56303;52.160;-0.428;2023-09-12T01:44:50;22.00;99.90
20744;DHT22;56303;52.160;-0.428;2023-09-12T01:47:18;21.80;99.90
20744;DHT22;56303;52.160;-0.428;2023-09-12T01:49:49;21.90;99.90
20744;DHT22;56303;52.160;-0.428;2023-09-12T01:52:16;21.70;99.90
20744;DHT22;56303;52.160;-0.428;2023-09-12T01:54:44;21.60;99.90
20744;DHT22;56303;52.160;-0.428;2023-09-12T01:57:12;21.50;99.90
20744;DHT22;56303;52.160;-0.428;2023-09-12T01:59:40;21.50;99.90
20744;DHT22;56303;52.160;-0.428;2023-09-12T02:02:07;21.50;99.90
20744;DHT22;56303;52.160;-0.428;2023-09-12T02:04:34;21.50;99.90
20744;DHT22;56303;52.160;-0.428;2023-09-12T02:07:00;21.50;99.90
20744;DHT22;56303;52.160;-0.428;2023-09-12T02:09:27;21.40;99.90
20744;DHT22;56303;52.160;-0.428;2023-09-12T02:11:54;21.40;99.90
20744;DHT22;56303;52.160;-0.428;2023-09-12T02:14:21;21.30;99.90
20744;DHT22;56303;52.160;-0.428;2023-09-12T02:16:48;21.20;99.90
20744;DHT22;56303;52.160;-0.428;2023-09-12T02:19:15;21.20;99.90
20744;DHT22;56303;52.160;-0.428;2023-09-12T02:21:42;21.20;99.90
20744;DHT22;56303;52.160;-0.428;2023-09-12T02:24:09;21.20;99.90
20744;DHT22;56303;52.160;-0.428;2023-09-12T02:26:36;21.20;99.90
20744;DHT22;56303;52.160;-0.428;2023-09-12T02:29:03;21.20;99.90
20744;DHT22;56303;52.160;-0.428;2023-09-12T02:31:32;21.30;99.90
20744;DHT22;56303;52.160;-0.428;2023-09-12T02:33:59;21.40;99.90
20744;DHT22;56303;52.160;-0.428;2023-09-12T02:36:27;21.20;99.90
20744;DHT22;56303;52.160;-0.428;2023-09-12T02:38:54;21.20;99.90
20744;DHT22;56303;52.160;-0.428;2023-09-12T02:41:21;21.20;99.90
20744;DHT22;56303;52.160;-0.428;2023-09-12T02:43:48;21.10;99.90
20744;DHT22;56303;52.160;-0.428;2023-09-12T02:46:15;21.20;99.90
20744;DHT22;56303;52.160;-0.428;2023-09-12T02:48:42;21.30;99.90
20744;DHT22;56303;52.160;-0.428;2023-09-12T02:51:09;21.40;99.90
20744;DHT22;56303;52.160;-0.428;2023-09-12T02:53:36;21.50;99.90
20744;DHT22;56303;52.160;-0.428;2023-09-12T02:56:03;21.50;99.90
20744;DHT22;56303;52.160;-0.428;2023-09-12T02:58:30;21.60;99.90
20744;DHT22;56303;52.160;-0.428;2023-09-12T03:00:56;21.50;99.90
20744;DHT22;56303;52.160;-0.428;2023-09-12T03:03:23;21.50;99.90
20744;DHT22;56303;52.160;-0.428;2023-09-12T03:06:00;21.40;99.90
20744;DHT22;56303;52.160;-0.428;2023-09-12T03:08:28;21.40;99.90
20744;DHT22;56303;52.160;-0.428;2023-09-12T03:10:58;21.30;99.90
20744;DHT22;56303;52.160;-0.428;2023-09-12T03:13:25;21.30;99.90
20744;DHT22;56303;52.160;-0.428;2023-09-12T03:15:52;21.20;99.90
20744;DHT22;56303;52.160;-0.428;2023-09-12T03:18:19;21.40;99.90
20744;DHT22;56303;52.160;-0.428;2023-09-12T03:20:46;21.60;99.90
20744;DHT22;56303;52.160;-0.428;2023-09-12T03:23:13;21.60;99.90
20744;DHT22;56303;52.160;-0.428;2023-09-12T03:25:40;21.60;99.90
20744;DHT22;56303;52.160;-0.428;2023-09-12T03:28:07;21.40;99.90
20744;DHT22;56303;52.160;-0.428;2023-09-12T03:30:36;21.40;99.90
20744;DHT22;56303;52.160;-0.428;2023-09-12T03:33:04;21.20;99.90
20744;DHT22;56303;52.160;-0.428;2023-09-12T03:35:32;20.90;99.90
20744;DHT22;56303;52.160;-0.428;2023-09-12T03:38:00;21.00;99.90
20744;DHT22;56303;52.160;-0.428;2023-09-12T03:40:30;21.10;99.90
20744;DHT22;56303;52.160;-0.428;2023-09-12T03:42:58;21.10;99.90
20744;DHT22;56303;52.160;-0.428;2023-09-12T03:45:25;21.00;99.90
20744;DHT22;56303;52.160;-0.428;2023-09-12T03:47:51;20.80;99.90
20744;DHT22;56303;52.160;-0.428;2023-09-12T03:50:19;20.90;99.90
20744;DHT22;56303;52.160;-0.428;2023-09-12T03:52:45;20.70;99.90
20744;DHT22;56303;52.160;-0.428;2023-09-12T03:55:12;20.60;99.90
20744;DHT22;56303;52.160;-0.428;2023-09-12T03:57:40;20.80;99.90
20744;DHT22;56303;52.160;-0.428;2023-09-12T04:00:07;20.80;99.90
20744;DHT22;56303;52.160;-0.428;2023-09-12T04:02:35;20.90;99.90
20744;DHT22;56303;52.160;-0.428;2023-09-12T04:05:02;21.00;99.90
20744;DHT22;56303;52.160;-0.428;2023-09-12T04:07:29;20.70;99.90
20744;DHT22;56303;52.160;-0.428;2023-09-12T04:09:55;20.80;99.90
20744;DHT22;56303;52.160;-0.428;2023-09-12T04:12:22;20.70;99.90
20744;DHT22;56303;52.160;-0.428;2023-09-12T04:14:49;20.80;99.90
20744;DHT22;56303;52.160;-0.428;2023-09-12T04:17:17;20.80;99.90
20744;DHT22;56303;52.160;-0.428;2023-09-12T04:19:44;20.90;99.90
20744;DHT22;56303;52.160;-0.428;2023-09-12T04:22:11;20.90;99.90
20744;DHT22;56303;52.160;-0.428;2023-09-12T04:24:38;20.90;99.90
20744;DHT22;56303;52.160;-0.428;2023-09-12T04:27:05;21.00;99.90
20744;DHT22;56303;52.160;-0.428;2023-09-12T04:29:33;21.00;99.90
20744;DHT22;56303;52.160;-0.428;2023-09-12T04:32:05;20.80;99.90
20744;DHT22;56303;52.160;-0.428;2023-09-12T04:34:33;20.80;99.90
20744;DHT22;56303;52.160;-0.428;2023-09-12T04:36:59;20.90;99.90
20744;DHT22;56303;52.160;-0.428;2023-09-12T04:39:29;20.90;99.90
20744;DHT22;56303;52.160;-0.428;2023-09-12T04:41:56;21.00;99.90
20744;DHT22;56303;52.160;-0.428;2023-09-12T04:44:23;20.90;99.90
20744;DHT22;56303;52.160;-0.428;2023-09-12T04:46:50;20.90;99.90
20744;DHT22;56303;52.160;-0.428;2023-09-12T04:49:17;20.90;99.90
20744;DHT22;56303;52.160;-0.428;2023-09-12T04:51:44;21.10;99.90
20744;DHT22;56303;52.160;-0.428;2023-09-12T04:54:11;20.90;99.90
20744;DHT22;56303;52.160;-0.428;2023-09-12T04:56:38;20.50;99.90
20744;DHT22;56303;52.160;-0.428;2023-09-12T04:59:05;20.40;99.90
20744;DHT22;56303;52.160;-0.428;2023-09-12T05:01:33;20.40;99.90
20744;DHT22;56303;52.160;-0.428;2023-09-12T05:04:00;20.30;99.90
20744;DHT22;56303;52.160;-0.428;2023-09-12T05:06:27;20.60;99.90
20744;DHT22;56303;52.160;-0.428;2023-09-12T05:08:54;20.60;99.90
20744;DHT22;56303;52.160;-0.428;2023-09-12T05:11:22;20.50;99.90
20744;DHT22;56303;52.160;-0.428;2023-09-12T05:13:51;20.60;99.90
20744;DHT22;56303;52.160;-0.428;2023-09-12T05:16:19;20.50;99.90
20744;DHT22;56303;52.160;-0.428;2023-09-12T05:18:46;20.70;99.90
20744;DHT22;56303;52.160;-0.428;2023-09-12T05:21:13;20.90;99.90
20744;DHT22;56303;52.160;-0.428;2023-09-12T05:23:40;21.50;99.90
20744;DHT22;56303;52.160;-0.428;2023-09-12T05:26:06;20.90;99.90
20744;DHT22;56303;52.160;-0.428;2023-09-12T05:28:34;20.90;99.90
20744;DHT22;56303;52.160;-0.428;2023-09-12T05:31:01;20.60;99.90
20744;DHT22;56303;52.160;-0.428;2023-09-12T05:33:28;20.50;99.90
20744;DHT22;56303;52.160;-0.428;2023-09-12T05:35:58;20.50;99.90
20744;DHT22;56303;52.160;-0.428;2023-09-12T05:38:25;20.50;99.90
20744;DHT22;56303;52.160;-0.428;2023-09-12T05:40:52;20.80;99.90
20744;DHT22;56303;52.160;-0.428;2023-09-12T05:43:19;20.70;99.90
20744;DHT22;56303;52.160;-0.428;2023-09-12T05:45:46;20.80;99.90
20744;DHT22;56303;52.160;-0.428;2023-09-12T05:48:13;20.80;99.90
20744;DHT22;56303;52.160;-0.428;2023-09-12T05:50:40;20.80;99.90
20744;DHT22;56303;52.160;-0.428;2023-09-12T05:53:08;20.90;99.90
20744;DHT22;56303;52.160;-0.428;2023-09-12T05:55:35;21.00;99.90
20744;DHT22;56303;52.160;-0.428;2023-09-12T05:58:02;21.10;99.90
20744;DHT22;56303;52.160;-0.428;2023-09-12T06:00:32;21.20;99.90
20744;DHT22;56303;52.160;-0.428;2023-09-12T06:03:00;21.20;99.90
20744;DHT22;56303;52.160;-0.428;2023-09-12T06:05:27;21.30;99.90
20744;DHT22;56303;52.160;-0.428;2023-09-12T06:07:54;21.40;99.90
20744;DHT22;56303;52.160;-0.428;2023-09-12T06:10:21;21.50;99.90
20744;DHT22;56303;52.160;-0.428;2023-09-12T06:12:48;21.50;99.90
20744;DHT22;56303;52.160;-0.428;2023-09-12T06:15:16;21.50;99.90
20744;DHT22;56303;52.160;-0.428;2023-09-12T06:17:43;21.50;99.90
20744;DHT22;56303;52.160;-0.428;2023-09-12T06:20:10;21.40;99.90
20744;DHT22;56303;52.160;-0.428;2023-09-12T06:22:37;21.20;99.90
20744;DHT22;56303;52.160;-0.428;2023-09-12T06:25:05;21.10;99.90
20744;DHT22;56303;52.160;-0.428;2023-09-12T06:27:32;21.00;99.90
20744;DHT22;56303;52.160;-0.428;2023-09-12T06:29:59;21.00;99.90
20744;DHT22;56303;52.160;-0.428;2023-09-12T06:32:26;21.10;99.90
20744;DHT22;56303;52.160;-0.428;2023-09-12T06:34:53;21.30;99.90
20744;DHT22;56303;52.160;-0.428;2023-09-12T06:37:20;21.30;99.90
20744;DHT22;56303;52.160;-0.428;2023-09-12T06:39:51;21.40;99.90
20744;DHT22;56303;52.160;-0.428;2023-09-12T06:42:18;21.20;99.90
20744;DHT22;56303;52.160;-0.428;2023-09-12T06:44:45;21.30;99.90
20744;DHT22;56303;52.160;-0.428;2023-09-12T06:47:12;21.30;99.90
20744;DHT22;56303;52.160;-0.428;2023-09-12T06:49:39;21.50;99.90
20744;DHT22;56303;52.160;-0.428;2023-09-12T06:52:06;21.50;99.90
20744;DHT22;56303;52.160;-0.428;2023-09-12T06:54:35;21.70;99.90
20744;DHT22;56303;52.160;-0.428;2023-09-12T06:57:02;21.70;99.90
20744;DHT22;56303;52.160;-0.428;2023-09-12T06:59:29;21.80;99.90
20744;DHT22;56303;52.160;-0.428;2023-09-12T07:01:55;21.90;99.90
20744;DHT22;56303;52.160;-0.428;2023-09-12T07:04:22;21.80;99.90
20744;DHT22;56303;52.160;-0.428;2023-09-12T07:06:49;21.60;99.90
20744;DHT22;56303;52.160;-0.428;2023-09-12T07:09:18;21.50;99.90
20744;DHT22;56303;52.160;-0.428;2023-09-12T07:11:46;21.40;99.90
20744;DHT22;56303;52.160;-0.428;2023-09-12T07:14:13;21.60;99.90
20744;DHT22;56303;52.160;-0.428;2023-09-12T07:16:40;21.90;99.90
20744;DHT22;56303;52.160;-0.428;2023-09-12T07:19:07;22.00;99.90
20744;DHT22;56303;52.160;-0.428;2023-09-12T07:21:34;22.10;99.90
20744;DHT22;56303;52.160;-0.428;2023-09-12T07:24:01;22.10;99.90
20744;DHT22;56303;52.160;-0.428;2023-09-12T07:26:28;22.20;99.90
20744;DHT22;56303;52.160;-0.428;2023-09-12T07:28:55;22.10;99.90
20744;DHT22;56303;52.160;-0.428;2023-09-12T07:31:21;22.20;99.90
20744;DHT22;56303;52.160;-0.428;2023-09-12T07:33:48;22.20;99.90
20744;DHT22;56303;52.160;-0.428;2023-09-12T07:36:15;22.30;99.90
20744;DHT22;56303;52.160;-0.428;2023-09-12T07:38:43;22.20;99.90
20744;DHT22;56303;52.160;-0.428;2023-09-12T07:41:12;22.30;99.90
20744;DHT22;56303;52.160;-0.428;2023-09-12T07:43:38;22.30;99.90
20744;DHT22;56303;52.160;-0.428;2023-09-12T07:46:07;22.30;99.90
20744;DHT22;56303;52.160;-0.428;2023-09-12T07:48:34;22.60;99.90
20744;DHT22;56303;52.160;-0.428;2023-09-12T07:51:01;22.70;99.90
20744;DHT22;56303;52.160;-0.428;2023-09-12T07:53:29;22.50;99.90
20744;DHT22;56303;52.160;-0.428;2023-09-12T07:55:59;22.60;99.90
20744;DHT22;56303;52.160;-0.428;2023-09-12T07:58:26;22.80;99.90
20744;DHT22;56303;52.160;-0.428;2023-09-12T08:00:53;23.10;99.90
20744;DHT22;56303;52.160;-0.428;2023-09-12T08:03:19;23.10;99.90
20744;DHT22;56303;52.160;-0.428;2023-09-12T08:05:59;23.10;99.90
20744;DHT22;56303;52.160;-0.428;2023-09-12T08:08:26;23.10;99.90
20744;DHT22;56303;52.160;-0.428;2023-09-12T08:10:54;23.40;99.90
20744;DHT22;56303;52.160;-0.428;2023-09-12T08:13:21;23.30;99.90
20744;DHT22;56303;52.160;-0.428;2023-09-12T08:15:48;22.90;99.90
20744;DHT22;56303;52.160;-0.428;2023-09-12T08:18:16;23.00;99.90
20744;DHT22;56303;52.160;-0.428;2023-09-12T08:20:43;23.10;99.90
20744;DHT22;56303;52.160;-0.428;2023-09-12T08:23:11;23.20;99.90
20744;DHT22;56303;52.160;-0.428;2023-09-12T08:25:39;23.10;99.90
20744;DHT22;56303;52.160;-0.428;2023-09-12T08:28:06;23.10;99.90
20744;DHT22;56303;52.160;-0.428;2023-09-12T08:30:33;23.20;99.90
20744;DHT22;56303;52.160;-0.428;2023-09-12T08:33:00;23.00;99.90
20744;DHT22;56303;52.160;-0.428;2023-09-12T08:35:29;23.00;99.90
20744;DHT22;56303;52.160;-0.428;2023-09-12T08:37:56;23.10;99.90
20744;DHT22;56303;52.160;-0.428;2023-09-12T08:40:23;23.20;99.90
20744;DHT22;56303;52.160;-0.428;2023-09-12T08:42:51;22.70;99.90
20744;DHT22;56303;52.160;-0.428;2023-09-12T08:45:19;22.70;99.90
20744;DHT22;56303;52.160;-0.428;2023-09-12T08:47:53;22.90;99.90
20744;DHT22;56303;52.160;-0.428;2023-09-12T08:50:22;23.10;99.90
20744;DHT22;56303;52.160;-0.428;2023-09-12T08:52:53;22.90;99.90
20744;DHT22;56303;52.160;-0.428;2023-09-12T08:55:33;22.80;99.90
20744;DHT22;56303;52.160;-0.428;2023-09-12T08:58:03;23.20;99.90
20744;DHT22;56303;52.160;-0.428;2023-09-12T09:00:31;22.90;99.90
20744;DHT22;56303;52.160;-0.428;2023-09-12T09:02:58;23.00;99.90
20744;DHT22;56303;52.160;-0.428;2023-09-12T09:05:27;23.00;99.90
20744;DHT22;56303;52.160;-0.428;2023-09-12T09:07:56;23.20;99.90
20744;DHT22;56303;52.160;-0.428;2023-09-12T09:10:23;23.30;99.90
20744;DHT22;56303;52.160;-0.428;2023-09-12T09:13:12;23.30;99.90
20744;DHT22;56303;52.160;-0.428;2023-09-12T09:15:39;23.30;99.90
20744;DHT22;56303;52.160;-0.428;2023-09-12T09:18:09;23.50;99.90
20744;DHT22;56303;52.160;-0.428;2023-09-12T09:20:39;23.70;99.90
20744;DHT22;56303;52.160;-0.428;2023-09-12T09:23:10;23.80;99.90
20744;DHT22;56303;52.160;-0.428;2023-09-12T09:25:42;23.80;99.90
20744;DHT22;56303;52.160;-0.428;2023-09-12T09:28:19;23.90;99.90
20744;DHT22;56303;52.160;-0.428;2023-09-12T09:30:48;23.50;99.90
20744;DHT22;56303;52.160;-0.428;2023-09-12T09:33:15;23.50;99.90
20744;DHT22;56303;52.160;-0.428;2023-09-12T09:35:46;23.30;99.90
20744;DHT22;56303;52.160;-0.428;2023-09-12T09:38:15;23.70;99.90
20744;DHT22;56303;52.160;-0.428;2023-09-12T09:40:45;23.90;99.90
20744;DHT22;56303;52.160;-0.428;2023-09-12T09:43:12;23.70;99.90
20744;DHT22;56303;52.160;-0.428;2023-09-12T09:45:45;23.90;99.90
20744;DHT22;56303;52.160;-0.428;2023-09-12T09:48:20;23.90;99.90
20744;DHT22;56303;52.160;-0.428;2023-09-12T09:50:47;23.70;99.90
20744;DHT22;56303;52.160;-0.428;2023-09-12T09:53:14;23.50;99.90
20744;DHT22;56303;52.160;-0.428;2023-09-12T09:55:41;23.30;99.90
20744;DHT22;56303;52.160;-0.428;2023-09-12T09:58:14;23.30;99.90
20744;DHT22;56303;52.160;-0.428;2023-09-12T10:00:44;23.50;99.90
20744;DHT22;56303;52.160;-0.428;2023-09-12T10:03:12;23.60;99.90
20744;DHT22;56303;52.160;-0.428;2023-09-12T10:05:42;23.70;99.90
20744;DHT22;56303;52.160;-0.428;2023-09-12T10:08:10;23.50;99.90
20744;DHT22;56303;52.160;-0.428;2023-09-12T10:10:38;23.10;99.90
20744;DHT22;56303;52.160;-0.428;2023-09-12T10:13:07;23.60;99.90
20744;DHT22;56303;52.160;-0.428;2023-09-12T10:15:37;23.90;99.90
20744;DHT22;56303;52.160;-0.428;2023-09-12T10:18:10;23.60;99.90
20744;DHT22;56303;52.160;-0.428;2023-09-12T10:21:15;23.70;99.90
20744;DHT22;56303;52.160;-0.428;2023-09-12T10:23:47;23.60;99.90
20744;DHT22;56303;52.160;-0.428;2023-09-12T10:26:17;23.50;99.90
20744;DHT22;56303;52.160;-0.428;2023-09-12T10:28:47;23.70;99.90
20744;DHT22;56303;52.160;-0.428;2023-09-12T10:31:15;24.40;99.90
20744;DHT22;56303;52.160;-0.428;2023-09-12T10:33:43;24.60;99.90
20744;DHT22;56303;52.160;-0.428;2023-09-12T10:36:12;24.80;99.90
20744;DHT22;56303;52.160;-0.428;2023-09-12T10:38:42;24.20;99.90
20744;DHT22;56303;52.160;-0.428;2023-09-12T10:41:15;24.00;99.90
20744;DHT22;56303;52.160;-0.428;2023-09-12T10:43:44;24.10;99.90
20744;DHT22;56303;52.160;-0.428;2023-09-12T10:46:16;24.30;99.90
20744;DHT22;56303;52.160;-0.428;2023-09-12T10:48:44;24.20;99.90
20744;DHT22;56303;52.160;-0.428;2023-09-12T10:51:11;23.70;99.90
20744;DHT22;56303;52.160;-0.428;2023-09-12T10:53:49;24.10;99.90
20744;DHT22;56303;52.160;-0.428;2023-09-12T10:56:20;23.80;99.90
20744;DHT22;56303;52.160;-0.428;2023-09-12T11:01:34;24.40;99.90
20744;DHT22;56303;52.160;-0.428;2023-09-12T11:06:55;24.30;99.90
20744;DHT22;56303;52.160;-0.428;2023-09-12T11:09:24;24.80;99.90
20744;DHT22;56303;52.160;-0.428;2023-09-12T11:11:58;24.70;99.90
20744;DHT22;56303;52.160;-0.428;2023-09-12T11:14:26;24.40;99.90
20744;DHT22;56303;52.160;-0.428;2023-09-12T11:19:45;24.70;99.90
20744;DHT22;56303;52.160;-0.428;2023-09-12T11:22:30;24.20;99.90
20744;DHT22;56303;52.160;-0.428;2023-09-12T11:25:02;24.00;99.90
20744;DHT22;56303;52.160;-0.428;2023-09-12T11:27:46;24.30;99.90
20744;DHT22;56303;52.160;-0.428;2023-09-12T11:30:27;24.40;99.90
20744;DHT22;56303;52.160;-0.428;2023-09-12T11:33:04;24.20;99.90
20744;DHT22;56303;52.160;-0.428;2023-09-12T11:35:37;23.40;99.90
20744;DHT22;56303;52.160;-0.428;2023-09-12T11:38:09;23.30;99.90
20744;DHT22;56303;52.160;-0.428;2023-09-12T11:43:03;22.50;99.90
20744;DHT22;56303;52.160;-0.428;2023-09-12T11:45:31;22.40;99.90
20744;DHT22;56303;52.160;-0.428;2023-09-12T11:47:59;22.40;99.90
20744;DHT22;56303;52.160;-0.428;2023-09-12T11:50:32;22.00;99.90
20744;DHT22;56303;52.160;-0.428;2023-09-12T11:53:10;22.00;99.90
20744;DHT22;56303;52.160;-0.428;2023-09-12T11:55:41;21.90;99.90
20744;DHT22;56303;52.160;-0.428;2023-09-12T11:58:33;21.80;99.90
20744;DHT22;56303;52.160;-0.428;2023-09-12T12:01:02;21.90;99.90
20744;DHT22;56303;52.160;-0.428;2023-09-12T12:03:29;21.70;99.90
20744;DHT22;56303;52.160;-0.428;2023-09-12T12:05:57;21.90;99.90
20744;DHT22;56303;52.160;-0.428;2023-09-12T12:08:25;21.40;99.90
20744;DHT22;56303;52.160;-0.428;2023-09-12T12:10:55;21.40;99.90
20744;DHT22;56303;52.160;-0.428;2023-09-12T12:13:22;21.10;99.90
20744;DHT22;56303;52.160;-0.428;2023-09-12T12:15:50;21.20;99.90
20744;DHT22;56303;52.160;-0.428;2023-09-12T12:18:17;20.70;99.90
20744;DHT22;56303;52.160;-0.428;2023-09-12T12:20:45;20.90;99.90
20744;DHT22;56303;52.160;-0.428;2023-09-12T12:23:12;20.70;99.90
20744;DHT22;56303;52.160;-0.428;2023-09-12T12:25:39;20.50;99.90
20744;DHT22;56303;52.160;-0.428;2023-09-12T12:28:06;20.90;99.90
20744;DHT22;56303;52.160;-0.428;2023-09-12T12:30:35;20.70;99.90
20744;DHT22;56303;52.160;-0.428;2023-09-12T12:33:07;21.00;99.90
20744;DHT22;56303;52.160;-0.428;2023-09-12T12:36:04;21.30;99.90
20744;DHT22;56303;52.160;-0.428;2023-09-12T12:38:37;21.50;99.90
20744;DHT22;56303;52.160;-0.428;2023-09-12T12:41:23;21.40;99.90
20744;DHT22;56303;52.160;-0.428;2023-09-12T12:43:52;21.30;99.90
20744;DHT22;56303;52.160;-0.428;2023-09-12T12:46:21;21.20;99.90
20744;DHT22;56303;52.160;-0.428;2023-09-12T12:48:50;21.60;99.90
20744;DHT22;56303;52.160;-0.428;2023-09-12T12:51:20;21.80;99.90
20744;DHT22;56303;52.160;-0.428;2023-09-12T12:56:22;22.10;99.90
20744;DHT22;56303;52.160;-0.428;2023-09-12T12:58:57;22.20;99.90
20744;DHT22;56303;52.160;-0.428;2023-09-12T13:01:25;22.60;99.90
20744;DHT22;56303;52.160;-0.428;2023-09-12T13:03:52;23.00;99.90
20744;DHT22;56303;52.160;-0.428;2023-09-12T13:06:21;23.00;99.90
20744;DHT22;56303;52.160;-0.428;2023-09-12T13:08:49;23.10;99.90
20744;DHT22;56303;52.160;-0.428;2023-09-12T13:11:16;23.10;99.90
20744;DHT22;56303;52.160;-0.428;2023-09-12T13:13:45;23.50;99.90
20744;DHT22;56303;52.160;-0.428;2023-09-12T13:16:13;23.80;99.90
20744;DHT22;56303;52.160;-0.428;2023-09-12T13:18:41;23.30;99.90
20744;DHT22;56303;52.160;-0.428;2023-09-12T13:21:08;23.30;99.90
20744;DHT22;56303;52.160;-0.428;2023-09-12T13:23:36;23.40;99.90
20744;DHT22;56303;52.160;-0.428;2023-09-12T13:26:05;23.50;99.90
20744;DHT22;56303;52.160;-0.428;2023-09-12T13:28:32;23.70;99.90
20744;DHT22;56303;52.160;-0.428;2023-09-12T13:30:59;23.50;99.90
20744;DHT22;56303;52.160;-0.428;2023-09-12T13:33:26;23.30;99.90
20744;DHT22;56303;52.160;-0.428;2023-09-12T13:35:53;23.80;99.90
20744;DHT22;56303;52.160;-0.428;2023-09-12T13:38:20;23.60;99.90
20744;DHT22;56303;52.160;-0.428;2023-09-12T13:40:46;23.60;99.90
20744;DHT22;56303;52.160;-0.428;2023-09-12T13:43:13;23.90;99.90
20744;DHT22;56303;52.160;-0.428;2023-09-12T13:45:41;23.80;99.90
20744;DHT22;56303;52.160;-0.428;2023-09-12T13:48:08;23.70;99.90
20744;DHT22;56303;52.160;-0.428;2023-09-12T13:50:35;23.30;99.90
20744;DHT22;56303;52.160;-0.428;2023-09-12T13:53:02;23.30;99.90
20744;DHT22;56303;52.160;-0.428;2023-09-12T13:55:36;23.30;99.90
20744;DHT22;56303;52.160;-0.428;2023-09-12T13:58:24;23.00;99.90
20744;DHT22;56303;52.160;-0.428;2023-09-12T14:00:59;22.80;99.90
20744;DHT22;56303;52.160;-0.428;2023-09-12T14:03:25;23.10;99.90
20744;DHT22;56303;52.160;-0.428;2023-09-12T14:05:56;23.00;99.90
20744;DHT22;56303;52.160;-0.428;2023-09-12T14:08:24;23.00;99.90
20744;DHT22;56303;52.160;-0.428;2023-09-12T14:10:52;22.80;99.90
20744;DHT22;56303;52.160;-0.428;2023-09-12T14:13:19;22.50;99.90
20744;DHT22;56303;52.160;-0.428;2023-09-12T14:15:48;22.40;99.90
20744;DHT22;56303;52.160;-0.428;2023-09-12T14:18:19;22.40;99.90
20744;DHT22;56303;52.160;-0.428;2023-09-12T14:20:47;22.50;99.90
20744;DHT22;56303;52.160;-0.428;2023-09-12T14:23:15;22.70;99.90
20744;DHT22;56303;52.160;-0.428;2023-09-12T14:25:43;22.80;99.90
20744;DHT22;56303;52.160;-0.428;2023-09-12T14:28:12;23.70;99.90
20744;DHT22;56303;52.160;-0.428;2023-09-12T14:30:41;24.40;99.90
20744;DHT22;56303;52.160;-0.428;2023-09-12T14:33:11;24.20;99.90
20744;DHT22;56303;52.160;-0.428;2023-09-12T14:35:43;24.30;99.90
20744;DHT22;56303;52.160;-0.428;2023-09-12T14:38:10;24.50;99.90
20744;DHT22;56303;52.160;-0.428;2023-09-12T14:40:37;24.60;99.90
20744;DHT22;56303;52.160;-0.428;2023-09-12T14:43:04;24.60;99.90
20744;DHT22;56303;52.160;-0.428;2023-09-12T14:45:33;24.30;99.90
20744;DHT22;56303;52.160;-0.428;2023-09-12T14:48:00;24.20;99.90
20744;DHT22;56303;52.160;-0.428;2023-09-12T14:50:26;24.00;99.90
20744;DHT22;56303;52.160;-0.428;2023-09-12T14:53:08;23.90;99.90
20744;DHT22;56303;52.160;-0.428;2023-09-12T14:55:34;23.60;99.90
20744;DHT22;56303;52.160;-0.428;2023-09-12T14:58:01;23.50;99.90
20744;DHT22;56303;52.160;-0.428;2023-09-12T15:00:28;23.50;99.90
20744;DHT22;56303;52.160;-0.428;2023-09-12T15:02:57;23.20;99.90
20744;DHT22;56303;52.160;-0.428;2023-09-12T15:05:24;23.10;99.90
20744;DHT22;56303;52.160;-0.428;2023-09-12T15:07:51;23.10;99.90
20744;DHT22;56303;52.160;-0.428;2023-09-12T15:10:19;23.00;99.90
20744;DHT22;56303;52.160;-0.428;2023-09-12T15:12:45;22.60;99.90
20744;DHT22;56303;52.160;-0.428;2023-09-12T15:15:12;22.40;99.90
20744;DHT22;56303;52.160;-0.428;2023-09-12T15:17:39;21.80;99.90
20744;DHT22;56303;52.160;-0.428;2023-09-12T15:20:07;21.30;99.90
20744;DHT22;56303;52.160;-0.428;2023-09-12T15:22:34;21.20;99.90
20744;DHT22;56303;52.160;-0.428;2023-09-12T15:25:02;20.80;99.90
20744;DHT22;56303;52.160;-0.428;2023-09-12T15:27:29;20.70;99.90
20744;DHT22;56303;52.160;-0.428;2023-09-12T15:29:56;20.50;99.90
20744;DHT22;56303;52.160;-0.428;2023-09-12T15:32:23;20.30;99.90
20744;DHT22;56303;52.160;-0.428;2023-09-12T15:34:50;20.40;99.90
20744;DHT22;56303;52.160;-0.428;2023-09-12T15:37:17;20.30;99.90
20744;DHT22;56303;52.160;-0.428;2023-09-12T15:39:48;20.10;99.90
20744;DHT22;56303;52.160;-0.428;2023-09-12T15:42:15;20.00;99.90